createdAt,value
2023-03-05T15:22:57.230Z,95766.28
2023-03-05T15:23:59.849Z,95766.38
2023-03-05T15:25:02.368Z,95763.34
2023-03-05T15:26:07.443Z,95759.94
2023-03-05T15:27:10.051Z,95759.16
2023-03-05T15:28:12.572Z,95759.50
2023-03-05T15:29:15.049Z,95759.44
2023-03-05T15:30:22.530Z,95765.59
2023-03-05T15:31:25.055Z,95763.44
2023-03-05T15:32:28.271Z,95764.28
2023-03-05T15:33:31.723Z,95759.31
2023-03-05T15:34:34.704Z,95756.03
2023-03-05T15:35:38.048Z,95760.31
2023-03-05T15:36:40.666Z,95758.78
2023-03-05T15:37:43.308Z,95757.56
2023-03-05T15:38:48.427Z,95753.00
2023-03-05T15:39:50.983Z,95754.56
2023-03-05T15:40:53.540Z,95749.31
2023-03-05T15:41:56.702Z,95751.22
2023-03-05T15:43:00.454Z,95750.44
2023-03-05T15:44:03.105Z,95751.75
2023-03-05T15:45:06.897Z,95745.84
2023-03-05T15:46:09.463Z,95747.41
2023-03-05T15:47:12.046Z,95746.09
2023-03-05T15:48:14.581Z,95745.97
2023-03-05T15:49:17.371Z,95741.38
2023-03-05T15:50:21.768Z,95746.28
2023-03-05T15:51:24.293Z,95740.03
2023-03-05T15:52:26.879Z,95740.84
2023-03-05T15:53:29.366Z,95737.16
2023-03-05T15:54:35.463Z,95735.81
2023-03-05T15:55:38.750Z,95743.06
2023-03-05T15:56:41.545Z,95733.34
2023-03-05T15:57:46.063Z,95740.47
2023-03-05T15:58:49.663Z,95737.94
2023-03-05T15:59:53.604Z,95731.47
2023-03-05T16:00:56.049Z,95741.06
2023-03-05T16:01:58.632Z,95736.38
2023-03-05T16:03:01.201Z,95731.47
2023-03-05T16:04:04.035Z,95732.88
2023-03-05T16:05:08.213Z,95737.25
2023-03-05T16:06:12.359Z,95731.56
2023-03-05T16:07:15.685Z,95732.88
2023-03-05T16:08:18.186Z,95742.50
2023-03-05T16:09:22.126Z,95736.91
2023-03-05T16:10:29.376Z,95739.69
2023-03-05T16:11:35.703Z,95732.81
2023-03-05T16:12:39.388Z,95734.78
2023-03-05T16:13:42.290Z,95738.56
2023-03-05T16:14:45.943Z,95739.25
2023-03-05T16:15:48.853Z,95732.69
2023-03-05T16:16:55.352Z,95727.00
2023-03-05T16:18:00.696Z,95727.91
2023-03-05T16:19:07.970Z,95728.22
2023-03-05T16:20:12.682Z,95731.34
2023-03-05T16:21:15.299Z,95726.31
2023-03-05T16:22:17.820Z,95721.75
2023-03-05T16:23:20.417Z,95721.66
2023-03-05T16:24:22.909Z,95725.88
2023-03-05T16:25:28.075Z,95720.97
2023-03-05T16:26:30.978Z,95724.44
2023-03-05T16:27:36.674Z,95715.94
2023-03-05T16:28:39.173Z,95721.75
2023-03-05T16:29:41.695Z,95726.00
2023-03-05T16:30:44.229Z,95722.44
2023-03-05T16:31:46.925Z,95722.19
2023-03-05T16:32:49.901Z,95714.97
2023-03-05T16:33:53.309Z,95723.44
2023-03-05T16:34:57.155Z,95725.00
2023-03-05T16:36:21.850Z,95717.75
2023-03-05T16:37:25.139Z,95721.88
2023-03-05T16:38:27.614Z,95714.97
2023-03-05T16:39:30.218Z,95721.53
2023-03-05T16:41:02.939Z,95719.75
2023-03-05T16:41:59.171Z,95716.53
2023-03-05T16:43:03.090Z,95713.72
2023-03-05T16:44:05.779Z,95714.84
2023-03-05T16:45:10.316Z,95716.38
2023-03-05T16:46:13.911Z,95712.50
2023-03-05T16:47:16.494Z,95717.97
2023-03-05T16:48:19.019Z,95714.06
2023-03-05T16:49:21.757Z,95715.53
2023-03-05T16:50:24.791Z,95719.75
2023-03-05T16:51:27.343Z,95712.25
2023-03-05T16:52:29.922Z,95707.72
2023-03-05T16:53:32.918Z,95707.72
2023-03-05T16:54:35.412Z,95719.88
2023-03-05T16:55:40.540Z,95715.06
2023-03-05T16:56:43.076Z,95716.97
2023-03-05T16:57:45.610Z,95710.84
2023-03-05T16:58:49.219Z,95711.06
2023-03-05T16:59:53.343Z,95705.94
2023-03-05T17:00:56.233Z,95709.38
2023-03-05T17:01:58.698Z,95706.94
2023-03-05T17:03:01.218Z,95708.81
2023-03-05T17:04:03.942Z,95703.59
2023-03-05T17:05:06.980Z,95701.81
2023-03-05T17:06:14.750Z,95704.59
2023-03-05T17:07:17.521Z,95706.38
2023-03-05T17:08:20.375Z,95708.59
2023-03-05T17:09:23.250Z,95713.06
2023-03-05T17:10:25.893Z,95708.94
2023-03-05T17:11:31.103Z,95705.25
2023-03-05T17:12:33.642Z,95699.56
2023-03-05T17:13:36.766Z,95701.59
2023-03-05T17:14:39.276Z,95701.91
2023-03-05T17:17:04.566Z,95702.38
2023-03-05T17:18:07.190Z,95693.66
2023-03-05T17:19:09.784Z,95696.13
2023-03-05T17:20:13.184Z,95703.00
2023-03-05T17:21:16.173Z,95699.34
2023-03-05T17:22:18.692Z,95703.38
2023-03-05T17:23:21.253Z,95710.97
2023-03-05T17:24:23.774Z,95707.97
2023-03-05T17:25:26.272Z,95704.59
2023-03-05T17:26:31.551Z,95704.34
2023-03-05T17:27:36.126Z,95703.25
2023-03-05T17:28:39.681Z,95702.03
2023-03-05T17:29:42.222Z,95706.38
2023-03-05T17:30:44.918Z,95713.50
2023-03-05T17:31:49.722Z,95705.81
2023-03-05T17:32:52.990Z,95704.25
2023-03-05T17:33:55.717Z,95710.63
2023-03-05T17:34:58.253Z,95707.16
2023-03-05T17:36:01.415Z,95712.19
2023-03-05T17:37:05.285Z,95712.94
2023-03-05T17:38:08.169Z,95711.84
2023-03-05T17:39:10.673Z,95706.94
2023-03-05T17:40:14.564Z,95704.59
2023-03-05T17:41:18.198Z,95704.72
2023-03-05T17:42:23.396Z,95707.03
2023-03-05T17:43:27.901Z,95712.06
2023-03-05T17:44:30.893Z,95702.59
2023-03-05T17:45:33.408Z,95702.38
2023-03-05T17:46:35.950Z,95705.81
2023-03-05T17:47:38.635Z,95711.97
2023-03-05T17:48:41.344Z,95703.94
2023-03-05T17:49:43.854Z,95709.06
2023-03-05T17:50:46.574Z,95712.19
2023-03-05T17:51:49.093Z,95715.75
2023-03-05T17:52:51.599Z,95715.31
2023-03-05T17:53:54.517Z,95707.72
2023-03-05T17:54:58.373Z,95706.38
2023-03-05T17:56:02.020Z,95711.63
2023-03-05T17:57:04.729Z,95700.69
2023-03-05T17:58:10.329Z,95704.47
2023-03-05T17:59:14.704Z,95699.91
2023-03-05T18:00:19.864Z,95702.81
2023-03-05T18:01:24.495Z,95704.84
2023-03-05T18:02:27.343Z,95708.72
2023-03-05T18:03:29.883Z,95705.41
2023-03-05T18:04:32.411Z,95700.81
2023-03-05T18:05:35.160Z,95702.81
2023-03-05T18:06:37.698Z,95702.25
2023-03-05T18:07:40.249Z,95699.47
2023-03-05T18:08:42.745Z,95707.94
2023-03-05T18:09:45.341Z,95708.06
2023-03-05T18:10:47.935Z,95705.41
2023-03-05T18:11:50.392Z,95707.94
2023-03-05T18:12:54.068Z,95708.28
2023-03-05T18:13:59.210Z,95700.81
2023-03-05T18:15:01.850Z,95710.63
2023-03-05T18:16:04.752Z,95702.03
2023-03-05T18:17:07.297Z,95702.03
2023-03-05T18:18:09.824Z,95702.81
2023-03-05T18:19:12.346Z,95707.72
2023-03-05T18:20:27.098Z,95693.66
2023-03-05T18:21:29.606Z,95698.91
2023-03-05T18:22:32.146Z,95695.66
2023-03-05T18:23:34.700Z,95698.00
2023-03-05T18:24:37.204Z,95700.25
2023-03-05T18:25:40.086Z,95687.84
2023-03-05T18:26:42.580Z,95689.88
2023-03-05T18:27:45.147Z,95686.97
2023-03-05T18:28:47.643Z,95691.22
2023-03-05T18:29:52.739Z,95688.78
2023-03-05T18:30:55.426Z,95684.28
2023-03-05T18:31:57.936Z,95683.28
2023-03-05T18:33:00.733Z,95690.84
2023-03-05T18:34:03.342Z,95682.16
2023-03-05T18:35:06.823Z,95683.28
2023-03-05T18:36:10.956Z,95681.16
2023-03-05T18:37:13.576Z,95679.63
2023-03-05T18:38:16.089Z,95678.16
2023-03-05T18:39:18.763Z,95679.38
2023-03-05T18:40:23.715Z,95677.47
2023-03-05T18:41:28.176Z,95678.38
2023-03-05T18:42:30.875Z,95677.81
2023-03-05T18:43:34.376Z,95676.94
2023-03-05T18:44:36.996Z,95677.47
2023-03-05T18:45:42.164Z,95684.19
2023-03-05T18:46:44.770Z,95679.94
2023-03-05T18:47:47.587Z,95679.03
2023-03-05T18:48:50.171Z,95680.06
2023-03-05T18:49:52.742Z,95674.72
2023-03-05T18:50:55.298Z,95684.72
2023-03-05T18:51:57.802Z,95668.78
2023-03-05T18:53:00.394Z,95680.06
2023-03-05T18:54:03.205Z,95678.28
2023-03-05T18:55:06.743Z,95678.16
2023-03-05T18:56:09.743Z,95674.59
2023-03-05T18:57:12.228Z,95673.94
2023-03-05T18:58:14.687Z,95671.13
2023-03-05T18:59:17.275Z,95677.06
2023-03-05T19:00:23.115Z,95673.47
2023-03-05T19:01:28.370Z,95676.38
2023-03-05T19:02:30.912Z,95682.41
2023-03-05T19:03:33.461Z,95678.59
2023-03-05T19:04:35.988Z,95678.97
2023-03-05T19:05:38.856Z,95686.63
2023-03-05T19:06:41.425Z,95680.19
2023-03-05T19:07:44.085Z,95683.19
2023-03-05T19:08:47.237Z,95678.91
2023-03-05T19:09:49.837Z,95678.03
2023-03-05T19:10:52.314Z,95681.41
2023-03-05T19:11:54.854Z,95685.41
2023-03-05T19:12:57.809Z,95681.28
2023-03-05T19:14:00.323Z,95677.06
2023-03-05T19:15:04.205Z,95681.50
2023-03-05T19:16:08.714Z,95678.50
2023-03-05T19:17:13.839Z,95678.16
2023-03-05T19:18:16.435Z,95675.38
2023-03-05T19:19:19.217Z,95675.28
2023-03-05T19:20:21.749Z,95674.25
2023-03-05T19:21:24.434Z,95672.59
2023-03-05T19:22:27.379Z,95669.13
2023-03-05T19:23:29.876Z,95671.00
2023-03-05T19:24:32.441Z,95675.16
2023-03-05T19:25:36.527Z,95670.13
2023-03-05T19:26:39.260Z,95670.56
2023-03-05T19:27:41.871Z,95667.44
2023-03-05T19:28:44.375Z,95672.91
2023-03-05T19:29:46.908Z,95668.66
2023-03-05T19:30:49.983Z,95670.25
2023-03-05T19:31:54.100Z,95668.00
2023-03-05T19:32:59.221Z,95667.78
2023-03-05T19:34:02.007Z,95673.69
2023-03-05T19:35:05.420Z,95660.63
2023-03-05T19:36:09.681Z,95665.66
2023-03-05T19:37:12.463Z,95663.75
2023-03-05T19:38:15.061Z,95664.00
2023-03-05T19:39:18.615Z,95655.41
2023-03-05T19:40:22.473Z,95651.50
2023-03-05T19:41:25.267Z,95657.31
2023-03-05T19:42:27.783Z,95651.06
2023-03-05T19:43:30.327Z,95657.19
2023-03-05T19:44:33.073Z,95658.41
2023-03-05T19:45:35.654Z,95653.50
2023-03-05T19:46:38.198Z,95655.84
2023-03-05T19:47:40.697Z,95656.66
2023-03-05T19:48:45.860Z,95650.38
2023-03-05T19:49:48.362Z,95653.06
2023-03-05T19:50:50.896Z,95647.81
2023-03-05T19:51:53.527Z,95651.84
2023-03-05T19:52:56.116Z,95646.38
2023-03-05T19:53:58.709Z,95644.69
2023-03-05T19:55:01.214Z,95651.50
2023-03-05T19:56:04.328Z,95645.91
2023-03-05T19:57:06.931Z,95632.66
2023-03-05T19:58:09.421Z,95640.13
2023-03-05T19:59:12.180Z,95636.69
2023-03-05T20:00:15.363Z,95639.59
2023-03-05T20:01:19.704Z,95634.66
2023-03-05T20:02:22.269Z,95636.03
2023-03-05T20:03:24.841Z,95637.34
2023-03-05T20:04:29.949Z,95646.16
2023-03-05T20:05:32.459Z,95628.09
2023-03-05T20:06:35.024Z,95636.22
2023-03-05T20:07:37.522Z,95633.75
2023-03-05T20:08:40.324Z,95630.75
2023-03-05T20:09:42.942Z,95635.34
2023-03-05T20:10:45.500Z,95630.88
2023-03-05T20:11:48.104Z,95629.31
2023-03-05T20:12:50.699Z,95629.53
2023-03-05T20:13:53.239Z,95629.31
2023-03-05T20:14:55.983Z,95629.53
2023-03-05T20:15:58.790Z,95624.06
2023-03-05T20:17:01.389Z,95629.41
2023-03-05T20:18:04.287Z,95632.22
2023-03-05T20:19:08.489Z,95626.09
2023-03-05T20:20:18.070Z,95624.31
2023-03-05T20:21:22.093Z,95624.19
2023-03-05T20:22:24.798Z,95627.88
2023-03-05T20:23:28.246Z,95624.41
2023-03-05T20:24:30.942Z,95623.88
2023-03-05T20:25:33.488Z,95632.88
2023-03-05T20:26:37.707Z,95625.75
2023-03-05T20:27:40.274Z,95634.53
2023-03-05T20:28:42.822Z,95624.06
2023-03-05T20:29:45.303Z,95618.47
2023-03-05T20:30:53.489Z,95625.59
2023-03-05T20:31:55.986Z,95626.31
2023-03-05T20:32:58.508Z,95616.78
2023-03-05T20:34:01.189Z,95617.56
2023-03-05T20:35:03.904Z,95617.78
2023-03-05T20:36:09.615Z,95620.34
2023-03-05T20:37:12.169Z,95613.66
2023-03-05T20:38:15.442Z,95614.44
2023-03-05T20:39:17.930Z,95609.88
2023-03-05T20:40:20.473Z,95621.03
2023-03-05T20:41:23.024Z,95619.03
2023-03-05T20:42:25.513Z,95613.25
2023-03-05T20:43:30.305Z,95612.16
2023-03-05T20:44:34.459Z,95616.03
2023-03-05T20:45:37.665Z,95608.25
2023-03-05T20:46:40.912Z,95611.38
2023-03-05T20:47:43.763Z,95614.13
2023-03-05T20:48:47.734Z,95606.13
2023-03-05T20:49:54.491Z,95605.66
2023-03-05T20:50:57.633Z,95606.81
2023-03-05T20:52:02.780Z,95604.88
2023-03-05T20:53:05.298Z,95598.38
2023-03-05T20:54:11.163Z,95604.44
2023-03-05T20:55:13.661Z,95598.91
2023-03-05T20:56:16.248Z,95599.09
2023-03-05T20:57:18.802Z,95595.84
2023-03-05T20:58:21.283Z,95590.19
2023-03-05T20:59:23.964Z,95592.09
2023-03-05T21:00:26.730Z,95591.72
2023-03-05T21:01:30.551Z,95588.72
2023-03-05T21:02:33.044Z,95590.75
2023-03-05T21:03:35.620Z,95592.22
2023-03-05T21:04:38.155Z,95593.31
2023-03-05T21:05:40.813Z,95593.41
2023-03-05T21:06:43.320Z,95593.31
2023-03-05T21:07:48.869Z,95585.84
2023-03-05T21:08:51.454Z,95581.84
2023-03-05T21:09:53.978Z,95587.31
2023-03-05T21:10:56.497Z,95585.59
2023-03-05T21:11:59.219Z,95585.28
2023-03-05T21:13:01.708Z,95587.97
2023-03-05T21:14:04.270Z,95587.63
2023-03-05T21:15:11.822Z,95586.16
2023-03-05T21:16:17.538Z,95592.66
2023-03-05T21:17:20.116Z,95593.31
2023-03-05T21:18:22.670Z,95593.03
2023-03-05T21:19:25.635Z,95588.38
2023-03-05T21:20:30.442Z,95586.03
2023-03-05T21:21:33.175Z,95587.75
2023-03-05T21:22:35.908Z,95592.97
2023-03-05T21:23:41.050Z,95588.72
2023-03-05T21:24:43.581Z,95590.97
2023-03-05T21:25:46.697Z,95589.59
2023-03-05T21:26:49.200Z,95585.47
2023-03-05T21:27:55.847Z,95584.94
2023-03-05T21:28:58.349Z,95584.94
2023-03-05T21:30:01.053Z,95585.94
2023-03-05T21:31:07.813Z,95585.25
2023-03-05T21:32:10.415Z,95581.59
2023-03-05T21:33:14.763Z,95577.25
2023-03-05T21:34:17.472Z,95578.78
2023-03-05T21:35:22.111Z,95578.56
2023-03-05T21:36:24.807Z,95573.56
2023-03-05T21:37:27.546Z,95574.56
2023-03-05T21:38:30.140Z,95563.41
2023-03-05T21:39:35.386Z,95569.84
2023-03-05T21:40:41.546Z,95568.53
2023-03-05T21:41:44.089Z,95568.63
2023-03-05T21:42:47.468Z,95571.09
2023-03-05T21:43:49.977Z,95566.63
2023-03-05T21:44:54.022Z,95568.53
2023-03-05T21:45:57.862Z,95563.94
2023-03-05T21:47:00.400Z,95568.84
2023-03-05T21:48:03.015Z,95568.19
2023-03-05T21:49:05.526Z,95569.22
2023-03-05T21:50:11.244Z,95562.84
2023-03-05T21:51:17.424Z,95565.84
2023-03-05T21:52:20.083Z,95569.28
2023-03-05T21:53:23.232Z,95566.16
2023-03-05T21:54:27.380Z,95563.75
2023-03-05T21:55:33.180Z,95558.38
2023-03-05T21:56:35.851Z,95553.59
2023-03-05T21:57:38.423Z,95560.97
2023-03-05T21:58:40.894Z,95560.28
2023-03-05T21:59:43.435Z,95555.50
2023-03-05T22:00:45.949Z,95553.59
2023-03-05T22:01:48.474Z,95549.47
2023-03-05T22:02:51.198Z,95555.94
2023-03-05T22:03:53.720Z,95551.28
2023-03-05T22:04:56.241Z,95550.13
2023-03-05T22:05:58.825Z,95542.56
2023-03-05T22:07:01.314Z,95543.00
2023-03-05T22:08:04.708Z,95544.44
2023-03-05T22:09:07.215Z,95537.19
2023-03-05T22:10:13.188Z,95538.31
2023-03-05T22:11:19.028Z,95544.78
2023-03-05T22:12:22.423Z,95544.44
2023-03-05T22:13:25.071Z,95542.09
2023-03-05T22:14:27.731Z,95539.44
2023-03-05T22:15:30.489Z,95537.88
2023-03-05T22:16:33.006Z,95538.66
2023-03-05T22:17:35.522Z,95541.78
2023-03-05T22:18:38.109Z,95539.91
2023-03-05T22:19:40.590Z,95528.19
2023-03-05T22:20:43.895Z,95541.91
2023-03-05T22:21:46.526Z,95540.00
2023-03-05T22:22:49.012Z,95535.44
2023-03-05T22:23:51.478Z,95534.88
2023-03-05T22:24:53.952Z,95534.09
2023-03-05T22:25:57.373Z,95529.63
2023-03-05T22:27:02.509Z,95527.72
2023-03-05T22:28:05.605Z,95519.72
2023-03-05T22:29:08.777Z,95521.59
2023-03-05T22:30:13.081Z,95523.19
2023-03-05T22:31:20.469Z,95517.38
2023-03-05T22:32:23.087Z,95517.72
2023-03-05T22:33:26.278Z,95515.69
2023-03-05T22:34:28.918Z,95511.53
2023-03-05T22:35:31.447Z,95513.72
2023-03-05T23:14:34.478Z,95476.06
